Time;durP1;ratioP1;P1;durP2;ratioP2;P2;SDS_P1;SDS_P2;PMS_P1;PMS_P2;Temp;Humidity;BMP_temperature;BMP_pressure;BME280_temperature;BME280_humidity;BME280_pressure;Samples;Min_cycle;Max_cycle;Signal;HPM_P1;HPM_P2
2023/01/31 00:02:25;;;;;;;9.90;4.32;;;;;;;4.64;100.00;101268.81;5036272;28;20212;-74
2023/01/31 00:04:52;;;;;;;14.90;3.40;;;;;;;4.57;100.00;101273.31;5036137;28;20653;-75
2023/01/31 00:07:18;;;;;;;7.60;3.53;;;;;;;4.59;100.00;101268.00;5045397;28;20245;-74
2023/01/31 00:09:46;;;;;;;13.18;4.07;;;;;;;4.65;100.00;101273.25;5055355;28;20272;-74
2023/01/31 00:12:13;;;;;;;12.23;3.60;;;;;;;4.67;100.00;101263.47;5057362;28;20253;-75
2023/01/31 00:14:40;;;;;;;8.90;3.00;;;;;;;4.67;100.00;101263.47;5051935;28;20243;-76
2023/01/31 00:17:06;;;;;;;12.10;3.97;;;;;;;4.63;100.00;101272.38;5042220;28;20283;-75
2023/01/31 00:19:33;;;;;;;15.20;3.90;;;;;;;4.66;100.00;101269.72;5036990;28;20254;-74
2023/01/31 00:21:59;;;;;;;10.13;3.90;;;;;;;4.66;100.00;101263.47;5037057;28;20291;-75
2023/01/31 00:24:26;;;;;;;10.00;3.58;;;;;;;4.56;100.00;101259.97;5037410;28;20477;-74
2023/01/31 00:26:55;;;;;;;11.23;3.65;;;;;;;4.57;100.00;101261.78;5035541;28;20240;-75
2023/01/31 00:29:23;;;;;;;11.30;4.00;;;;;;;4.50;100.00;101260.00;5033668;28;20698;-75
2023/01/31 00:31:50;;;;;;;12.35;4.35;;;;;;;4.46;100.00;101264.50;5034544;28;20598;-75
2023/01/31 00:34:17;;;;;;;11.20;3.90;;;;;;;4.42;100.00;101264.53;5035704;28;20217;-75
2023/01/31 00:36:44;;;;;;;12.75;5.20;;;;;;;4.27;100.00;101261.03;5035627;28;20570;-75
2023/01/31 00:39:10;;;;;;;16.30;4.07;;;;;;;4.28;100.00;101260.16;5035392;28;20203;-75
2023/01/31 00:41:38;;;;;;;11.65;3.40;;;;;;;4.23;100.00;101258.41;5033851;28;20275;-74
2023/01/31 00:44:07;;;;;;;14.45;4.15;;;;;;;4.14;100.00;101256.69;5035081;28;20290;-76
2023/01/31 00:46:34;;;;;;;9.27;3.40;;;;;;;4.13;100.00;101261.13;5034056;28;20670;-75
2023/01/31 00:49:01;;;;;;;9.93;3.78;;;;;;;4.11;100.00;101264.69;5034265;28;20200;-76
2023/01/31 00:51:27;;;;;;;12.77;4.93;;;;;;;4.10;100.00;101252.28;5033111;28;20790;-75
2023/01/31 00:53:55;;;;;;;13.15;4.50;;;;;;;4.08;100.00;101254.06;5033492;28;20199;-76
2023/01/31 00:56:23;;;;;;;10.88;3.88;;;;;;;4.07;100.00;101252.25;5033868;28;20271;-75
2023/01/31 00:58:50;;;;;;;13.25;4.60;;;;;;;4.04;100.00;101253.16;5033392;28;20211;-76
2023/01/31 01:01:21;;;;;;;8.25;3.60;;;;;;;4.03;100.00;101248.75;5031239;28;20594;-75
2023/01/31 01:03:48;;;;;;;10.82;3.55;;;;;;;3.93;100.00;101255.91;5036956;28;20199;-76
2023/01/31 01:06:15;;;;;;;14.68;3.85;;;;;;;3.85;100.00;101255.03;5037340;28;20207;-76
2023/01/31 01:08:43;;;;;;;11.48;3.97;;;;;;;3.87;100.00;101260.38;5036497;28;20220;-74
2023/01/31 01:11:12;;;;;;;10.75;4.47;;;;;;;3.82;100.00;101265.72;5037895;28;20255;-76
2023/01/31 01:13:39;;;;;;;14.38;4.15;;;;;;;3.83;100.00;101261.28;5038616;28;20230;-76
2023/01/31 01:16:06;;;;;;;8.27;2.95;;;;;;;3.93;100.00;101273.66;5037358;28;20205;-75
2023/01/31 01:18:35;;;;;;;14.95;3.58;;;;;;;3.87;100.00;101271.91;5035864;28;20208;-75
2023/01/31 01:21:07;;;;;;;15.05;5.35;;;;;;;3.82;100.00;101273.72;5036884;28;20256;-75
2023/01/31 01:23:33;;;;;;;8.65;3.15;;;;;;;3.82;100.00;101271.06;5037044;28;20197;-75
2023/01/31 01:26:00;;;;;;;14.35;3.92;;;;;;;3.73;100.00;101273.72;5037421;28;20360;-74
2023/01/31 01:28:26;;;;;;;9.85;3.92;;;;;;;3.81;100.00;101279.06;5034895;28;20306;-76
2023/01/31 01:30:53;;;;;;;11.00;3.95;;;;;;;3.84;100.00;101279.03;5035413;28;20235;-75
2023/01/31 01:33:19;;;;;;;17.67;4.50;;;;;;;3.90;100.00;101277.22;5035755;28;20685;-75
2023/01/31 01:35:47;;;;;;;15.45;3.72;;;;;;;3.90;100.00;101277.22;5035778;28;20267;-74
2023/01/31 01:38:14;;;;;;;8.13;4.40;;;;;;;3.94;100.00;101278.13;5037120;28;20199;-76
2023/01/31 01:40:41;;;;;;;12.63;3.80;;;;;;;3.93;100.00;101277.22;5037776;28;20229;-75
2023/01/31 01:43:11;;;;;;;12.90;3.50;;;;;;;3.88;100.00;101273.69;5037814;28;20291;-75
2023/01/31 01:45:37;;;;;;;15.35;4.03;;;;;;;3.91;100.00;101271.03;5037319;28;20211;-75
2023/01/31 01:48:08;;;;;;;11.88;3.95;;;;;;;3.83;100.00;101264.81;5033014;28;20224;-75
2023/01/31 01:50:39;;;;;;;10.82;3.90;;;;;;;3.83;100.00;101271.94;5033768;28;20224;-75
2023/01/31 01:53:12;;;;;;;10.38;3.33;;;;;;;3.83;100.00;101274.59;5033458;28;20235;-76
2023/01/31 01:55:42;;;;;;;9.60;3.22;;;;;;;3.86;100.00;101270.13;5032099;28;20616;-75
2023/01/31 01:58:14;;;;;;;13.40;3.40;;;;;;;3.85;100.00;101273.69;5031234;28;20712;-75
2023/01/31 02:00:40;;;;;;;11.05;3.50;;;;;;;3.90;100.00;101277.22;5030416;28;20594;-75
2023/01/31 02:03:08;;;;;;;16.60;4.47;;;;;;;3.83;100.00;101277.25;5032790;28;20203;-75
2023/01/31 02:05:40;;;;;;;16.17;4.00;;;;;;;3.82;100.00;101273.72;5038994;28;20213;-76
2023/01/31 02:08:09;;;;;;;10.85;2.95;;;;;;;3.76;100.00;101274.63;5039321;28;20598;-75
2023/01/31 02:10:42;;;;;;;15.35;3.20;;;;;;;3.73;100.00;101279.97;5038401;28;20318;-75
2023/01/31 02:13:09;;;;;;;10.02;3.28;;;;;;;3.73;100.00;101277.31;5041196;28;20227;-75
2023/01/31 02:15:36;;;;;;;14.43;3.75;;;;;;;3.67;100.00;101269.31;5040517;28;20571;-76
2023/01/31 02:18:02;;;;;;;7.82;3.35;;;;;;;3.69;100.00;101266.66;5036179;28;20200;-76
2023/01/31 02:21:04;;;;;;;9.73;3.88;;;;;;;3.57;100.00;101277.34;5042646;28;20360;-73
2023/01/31 02:24:20;;;;;;;13.23;3.42;;;;;;;3.58;100.00;101271.13;5027758;28;20236;-74
2023/01/31 02:27:11;;;;;;;15.45;3.45;;;;;;;3.51;100.00;101267.59;5015693;28;20200;-74
2023/01/31 02:29:59;;;;;;;9.82;3.25;;;;;;;3.52;100.00;101274.69;5016139;28;20324;-75
2023/01/31 02:32:53;;;;;;;17.23;4.47;;;;;;;3.43;100.00;101270.25;5017869;28;20194;-75
2023/01/31 02:35:31;;;;;;;10.48;4.18;;;;;;;3.42;100.00;101265.84;5017033;28;20586;-76
2023/01/31 02:38:08;;;;;;;10.98;3.92;;;;;;;3.48;100.00;101265.84;5014101;28;20253;-76
2023/01/31 02:40:40;;;;;;;12.35;4.65;;;;;;;3.45;100.00;101265.81;5015331;28;20705;-75
2023/01/31 02:43:13;;;;;;;10.60;3.85;;;;;;;3.39;100.00;101257.84;5015369;28;20216;-76
2023/01/31 02:45:49;;;;;;;13.18;4.90;;;;;;;3.37;100.00;101251.66;5014861;28;20224;-75
2023/01/31 02:52:15;;;;;;;11.52;3.20;;;;;;;3.42;100.00;101265.84;5011734;28;20286;-75
2023/01/31 02:57:18;;;;;;;13.45;3.42;;;;;;;3.34;100.00;101270.28;4993886;28;20204;-74
2023/01/31 02:59:46;;;;;;;10.23;4.20;;;;;;;3.23;100.00;101269.41;5001114;28;20212;-75
2023/01/31 03:02:13;;;;;;;14.68;4.03;;;;;;;3.15;100.00;101276.53;5026212;28;20228;-76
2023/01/31 03:04:41;;;;;;;14.25;3.63;;;;;;;3.16;100.00;101275.63;5027013;28;20243;-76
2023/01/31 03:10:59;;;;;;;9.20;3.67;;;;;;;3.12;100.00;101286.28;5044554;28;20215;-74
2023/01/31 03:13:36;;;;;;;13.45;5.03;;;;;;;3.23;100.00;101288.03;5044944;28;20231;-74
2023/01/31 03:19:12;;;;;;;18.08;3.28;;;;;;;3.41;100.00;101301.34;5037353;28;20261;-75
2023/01/31 03:21:44;;;;;;;7.93;3.92;;;;;;;3.50;100.00;101303.97;5036221;28;20262;-75
2023/01/31 03:24:12;;;;;;;11.48;3.97;;;;;;;3.57;100.00;101309.31;5034404;28;20192;-74
2023/01/31 03:26:41;;;;;;;13.25;3.35;;;;;;;3.61;100.00;101305.75;5034941;28;20200;-75
2023/01/31 03:29:11;;;;;;;13.02;3.63;;;;;;;3.51;100.00;101305.75;5034924;28;20315;-76
2023/01/31 03:31:40;;;;;;;11.52;3.90;;;;;;;3.50;100.00;101309.31;5034605;28;20709;-75
2023/01/31 03:34:10;;;;;;;9.77;3.53;;;;;;;3.50;100.00;101306.63;5034994;28;20212;-74
2023/01/31 03:36:41;;;;;;;22.25;8.98;;;;;;;3.46;100.00;101314.63;5034805;28;20301;-75
2023/01/31 03:39:14;;;;;;;11.40;4.35;;;;;;;3.50;100.00;101325.28;5034484;28;20208;-75
2023/01/31 03:41:50;;;;;;;14.88;3.95;;;;;;;3.59;100.00;101318.19;5036256;28;20224;-76
2023/01/31 03:44:25;;;;;;;14.10;3.10;;;;;;;3.65;100.00;101324.38;5035363;28;20201;-75
2023/01/31 03:46:59;;;;;;;11.85;4.07;;;;;;;3.72;100.00;101328.81;5045654;28;20208;-73
2023/01/31 03:49:28;;;;;;;12.35;4.03;;;;;;;3.65;100.00;101315.50;5042581;28;20187;-75
2023/01/31 03:52:02;;;;;;;13.05;3.15;;;;;;;3.66;100.00;101319.94;5037539;28;20220;-74
2023/01/31 03:54:33;;;;;;;10.70;3.40;;;;;;;3.63;100.00;101319.94;5042158;28;20216;-75
2023/01/31 03:57:07;;;;;;;9.50;3.50;;;;;;;3.55;100.00;101318.19;5043836;28;20216;-75
2023/01/31 03:59:38;;;;;;;6.68;3.65;;;;;;;3.57;100.00;101330.59;5043735;28;20195;-75
2023/01/31 04:02:08;;;;;;;11.68;3.65;;;;;;;3.51;100.00;101316.41;5057097;28;20208;-74
2023/01/31 04:04:40;;;;;;;12.18;4.25;;;;;;;3.55;100.00;101328.84;5056131;28;20205;-74
2023/01/31 04:07:07;;;;;;;18.40;4.20;;;;;;;3.62;100.00;101327.06;5054372;28;20199;-75
2023/01/31 04:09:33;;;;;;;14.20;3.92;;;;;;;3.64;100.00;101316.38;5043360;28;20212;-76
2023/01/31 04:12:03;;;;;;;10.07;3.30;;;;;;;3.60;100.00;101319.97;5036959;28;20255;-76
2023/01/31 04:14:30;;;;;;;12.02;3.03;;;;;;;3.68;100.00;101326.16;5037136;28;20267;-75
2023/01/31 04:16:56;;;;;;;9.60;4.28;;;;;;;3.69;100.00;101325.28;5037563;28;20207;-76
2023/01/31 04:19:23;;;;;;;12.63;3.40;;;;;;;3.73;100.00;101322.59;5036701;28;20207;-76
2023/01/31 04:21:50;;;;;;;11.30;3.03;;;;;;;3.71;100.00;101321.72;5037254;28;20316;-75
2023/01/31 04:24:16;;;;;;;9.50;3.40;;;;;;;3.69;100.00;101311.94;5041850;28;20197;-76
2023/01/31 04:26:43;;;;;;;11.65;4.00;;;;;;;3.56;100.00;101316.41;5038649;28;20199;-74
2023/01/31 04:29:11;;;;;;;12.40;3.85;;;;;;;3.51;100.00;101316.41;5037270;28;20233;-76
2023/01/31 04:31:38;;;;;;;18.25;3.78;;;;;;;3.48;100.00;101308.44;5038382;28;20246;-76
2023/01/31 04:34:05;;;;;;;13.40;3.38;;;;;;;3.53;100.00;101311.09;5039430;28;20208;-77
2023/01/31 04:36:31;;;;;;;7.75;3.42;;;;;;;3.40;100.00;101307.56;5039112;28;20214;-76
2023/01/31 04:38:59;;;;;;;9.73;3.78;;;;;;;3.34;100.00;101307.56;5036785;28;20211;-75
2023/01/31 04:41:26;;;;;;;12.70;3.60;;;;;;;3.21;100.00;101295.13;5039714;28;20284;-76
2023/01/31 04:43:53;;;;;;;10.07;3.08;;;;;;;3.32;100.00;101298.69;5036560;28;20188;-76
2023/01/31 04:46:21;;;;;;;22.75;3.65;;;;;;;3.35;100.00;101293.38;5036475;28;20200;-76
2023/01/31 04:48:47;;;;;;;7.97;3.10;;;;;;;3.27;100.00;101287.16;5034120;28;20772;-75
2023/01/31 04:51:14;;;;;;;13.43;3.55;;;;;;;3.17;100.00;101283.63;5034808;28;20242;-76
2023/01/31 04:53:43;;;;;;;10.57;4.00;;;;;;;3.19;100.00;101286.28;5035049;28;20208;-74
2023/01/31 04:56:19;;;;;;;11.70;3.63;;;;;;;3.13;100.00;101272.09;5041401;28;20193;-76
2023/01/31 04:58:47;;;;;;;10.45;3.20;;;;;;;3.20;100.00;101275.63;5045140;28;20261;-77
2023/01/31 05:01:17;;;;;;;12.77;3.85;;;;;;;3.09;100.00;101277.41;5051318;28;20254;-77
2023/01/31 05:03:46;;;;;;;19.08;3.85;;;;;;;3.11;100.00;101279.19;5047123;28;20246;-75
2023/01/31 05:06:13;;;;;;;16.33;3.72;;;;;;;3.18;100.00;101281.84;5048102;28;20224;-77
2023/01/31 05:08:39;;;;;;;10.63;3.50;;;;;;;3.03;100.00;101280.97;5047498;28;20263;-76
2023/01/31 05:11:06;;;;;;;8.95;3.70;;;;;;;3.02;100.00;101280.97;5049528;28;20248;-76
2023/01/31 05:13:36;;;;;;;8.82;3.58;;;;;;;2.96;100.00;101278.31;5051485;28;20259;-75
2023/01/31 05:16:05;;;;;;;10.43;3.50;;;;;;;2.92;100.00;101283.63;5037398;28;20196;-76
2023/01/31 05:18:31;;;;;;;12.68;3.03;;;;;;;3.00;100.00;101280.97;5035283;28;20291;-76
2023/01/31 05:20:59;;;;;;;14.75;3.00;;;;;;;3.13;100.00;101277.41;5024606;28;20232;-75
2023/01/31 05:23:26;;;;;;;14.10;3.00;;;;;;;3.13;100.00;101277.41;5017617;28;20232;-74
2023/01/31 05:25:53;;;;;;;8.07;2.67;;;;;;;3.16;100.00;101281.84;5017381;28;20206;-74
2023/01/31 05:28:19;;;;;;;9.57;3.10;;;;;;;3.11;100.00;101279.19;5034724;28;20250;-75
2023/01/31 05:30:46;;;;;;;11.68;3.00;;;;;;;3.04;100.00;101269.44;5047078;28;20235;-75
2023/01/31 05:33:13;;;;;;;19.08;4.63;;;;;;;3.07;100.00;101272.06;5035734;28;20226;-76
2023/01/31 05:35:41;;;;;;;10.50;3.25;;;;;;;3.02;100.00;101276.53;5035062;28;20579;-75
2023/01/31 05:38:09;;;;;;;7.47;2.83;;;;;;;3.08;100.00;101273.00;5031697;28;20200;-75
2023/01/31 05:40:36;;;;;;;11.52;3.42;;;;;;;3.00;100.00;101280.09;5014011;28;20259;-75
2023/01/31 05:43:02;;;;;;;6.07;2.75;;;;;;;2.98;100.00;101272.09;5017199;28;20208;-75
2023/01/31 05:45:30;;;;;;;9.40;3.13;;;;;;;3.01;100.00;101274.78;5013893;28;20217;-75
2023/01/31 05:47:57;;;;;;;4.22;2.30;;;;;;;2.98;100.00;101285.41;5017446;28;20258;-76
2023/01/31 05:50:24;;;;;;;7.43;3.00;;;;;;;2.94;100.00;101286.31;5018733;28;20593;-76
2023/01/31 05:52:52;;;;;;;9.57;3.30;;;;;;;2.93;100.00;101277.41;5021324;28;20216;-75
2023/01/31 05:55:20;;;;;;;13.40;3.45;;;;;;;2.90;100.00;101273.88;5018374;28;20242;-76
2023/01/31 05:57:47;;;;;;;11.45;2.72;;;;;;;2.82;100.00;101268.53;5017480;28;20205;-74
2023/01/31 06:00:15;;;;;;;8.00;3.25;;;;;;;2.85;100.00;101257.91;5018493;28;20561;-74
2023/01/31 06:02:42;;;;;;;12.05;3.03;;;;;;;2.87;100.00;101265.88;5018222;28;20204;-74
2023/01/31 06:05:10;;;;;;;11.35;3.00;;;;;;;2.88;100.00;101257.91;5020696;28;20212;-76
2023/01/31 06:07:36;;;;;;;7.38;3.50;;;;;;;2.81;100.00;101257.91;5030746;28;20201;-75
2023/01/31 06:10:04;;;;;;;8.68;3.22;;;;;;;2.84;100.00;101257.91;5035681;28;20246;-75
2023/01/31 06:12:32;;;;;;;7.80;3.20;;;;;;;2.78;100.00;101266.78;5034955;28;20283;-76
2023/01/31 06:14:58;;;;;;;9.65;3.35;;;;;;;2.65;100.00;101268.53;5039074;28;20196;-76
2023/01/31 06:17:25;;;;;;;10.68;3.88;;;;;;;2.68;100.00;101263.22;5040245;28;20203;-76
2023/01/31 06:19:51;;;;;;;10.82;3.25;;;;;;;2.64;100.00;101266.75;5038586;28;20294;-76
2023/01/31 06:22:18;;;;;;;5.45;3.53;;;;;;;2.62;100.00;101267.63;5040050;28;20251;-76
2023/01/31 06:24:45;;;;;;;16.30;3.70;;;;;;;2.62;100.00;101262.31;5042339;28;20629;-76
2023/01/31 06:27:12;;;;;;;7.47;3.05;;;;;;;2.59;100.00;101267.66;5041454;28;20204;-76
2023/01/31 06:29:40;;;;;;;6.78;2.40;;;;;;;2.59;100.00;101267.66;5041278;28;20601;-76
2023/01/31 06:32:07;;;;;;;8.80;3.67;;;;;;;2.56;100.00;101262.34;5040256;28;20685;-77
2023/01/31 06:34:34;;;;;;;12.02;3.45;;;;;;;2.68;100.00;101267.66;5040692;28;20204;-77
2023/01/31 06:37:01;;;;;;;5.60;3.40;;;;;;;2.71;100.00;101263.25;5040567;28;20298;-76
2023/01/31 06:39:27;;;;;;;10.18;3.75;;;;;;;2.69;100.00;101270.31;5039799;28;20205;-76
2023/01/31 06:41:54;;;;;;;6.55;4.25;;;;;;;2.75;100.00;101263.22;5050746;28;20240;-78
2023/01/31 06:44:20;;;;;;;71.25;33.38;;;;;;;3.45;100.00;101270.28;5044093;28;20207;-69
2023/01/31 06:46:48;;;;;;;10.90;5.60;;;;;;;3.33;100.00;101261.41;5043969;28;20209;-73
2023/01/31 06:49:15;;;;;;;10.90;3.33;;;;;;;3.04;100.00;101271.22;5046809;28;20252;-76
2023/01/31 06:51:42;;;;;;;9.75;3.80;;;;;;;2.93;100.00;101269.44;5041871;28;20234;-76
2023/01/31 06:54:08;;;;;;;7.78;3.45;;;;;;;2.90;100.00;101268.56;5040927;28;20221;-76
2023/01/31 06:56:35;;;;;;;14.18;3.80;;;;;;;2.92;100.00;101269.44;5038347;28;20246;-76
2023/01/31 06:59:02;;;;;;;10.02;3.38;;;;;;;2.93;100.00;101277.41;5038107;28;20287;-76
2023/01/31 07:01:28;;;;;;;7.60;3.63;;;;;;;2.95;100.00;101277.41;5038294;28;20228;-76
2023/01/31 07:03:56;;;;;;;8.57;3.47;;;;;;;2.99;100.00;101273.88;5041020;28;20207;-75
2023/01/31 07:06:22;;;;;;;9.35;4.10;;;;;;;3.00;100.00;101291.59;5036779;28;20209;-75
2023/01/31 07:08:49;;;;;;;9.68;3.80;;;;;;;2.96;100.00;101289.81;5042853;28;20228;-75
2023/01/31 07:11:16;;;;;;;8.98;3.30;;;;;;;2.98;100.00;101288.06;5047061;28;20234;-75
2023/01/31 07:13:44;;;;;;;10.90;3.50;;;;;;;2.94;100.00;101283.66;5036450;28;20239;-75
2023/01/31 07:16:11;;;;;;;11.10;4.13;;;;;;;2.82;100.00;101275.63;5036999;28;20251;-76
2023/01/31 07:18:38;;;;;;;9.38;4.35;;;;;;;2.81;100.00;101285.41;5036232;28;20204;-76
2023/01/31 07:21:06;;;;;;;9.15;3.65;;;;;;;2.73;100.00;101276.50;5035847;28;20226;-75
2023/01/31 07:23:32;;;;;;;7.22;3.42;;;;;;;2.74;100.00;101280.06;5036795;28;20597;-75
2023/01/31 07:26:03;;;;;;;9.82;3.78;;;;;;;2.62;100.00;101289.84;5035969;28;20202;-76
2023/01/31 07:28:30;;;;;;;9.30;4.25;;;;;;;2.60;100.00;101280.97;5042333;28;20289;-75
2023/01/31 07:30:56;;;;;;;11.98;3.80;;;;;;;2.53;100.00;101286.25;5045608;28;20235;-75
2023/01/31 07:33:23;;;;;;;12.70;3.60;;;;;;;2.58;100.00;101293.38;5047870;28;20272;-75
2023/01/31 07:35:49;;;;;;;12.32;4.05;;;;;;;2.61;100.00;101293.34;5053289;28;20295;-74
2023/01/31 07:38:17;;;;;;;9.75;3.17;;;;;;;2.78;100.00;101300.47;5051493;28;20200;-76
2023/01/31 07:40:44;;;;;;;10.00;3.75;;;;;;;3.03;100.00;101296.03;5045450;28;20231;-75
2023/01/31 07:43:10;;;;;;;13.27;3.60;;;;;;;3.20;100.00;101293.38;5040260;28;20208;-76
2023/01/31 07:45:41;;;;;;;12.00;3.67;;;;;;;3.52;100.00;101291.53;5036341;28;20637;-75
2023/01/31 07:48:08;;;;;;;12.95;4.18;;;;;;;3.60;100.00;101296.00;5035104;28;20664;-75
2023/01/31 07:50:35;;;;;;;12.60;4.57;;;;;;;3.87;100.00;101297.69;5036285;28;20255;-76
2023/01/31 07:53:01;;;;;;;9.75;4.05;;;;;;;3.83;100.00;101299.47;5037080;28;20208;-76
2023/01/31 07:55:29;;;;;;;10.73;4.35;;;;;;;4.16;100.00;101300.22;5036028;28;20204;-76
2023/01/31 07:57:56;;;;;;;6.72;3.63;;;;;;;3.89;100.00;101296.78;5036335;28;20231;-77
2023/01/31 08:03:35;;;;;;;9.43;3.58;;;;;;;3.59;100.00;101304.84;5042192;28;20222;-77
2023/01/31 08:06:06;;;;;;;11.98;4.45;;;;;;;3.51;100.00;101299.56;5044793;28;20311;-78
2023/01/31 08:08:33;;;;;;;9.95;3.75;;;;;;;3.38;100.00;101301.34;5036486;28;20212;-76
2023/01/31 08:11:03;;;;;;;13.35;4.32;;;;;;;3.39;100.00;101300.44;5035292;28;20220;-77
2023/01/31 08:13:30;;;;;;;8.95;3.78;;;;;;;3.28;100.00;101303.16;5038263;28;20236;-76
2023/01/31 08:15:57;;;;;;;8.13;5.75;;;;;;;3.18;100.00;101295.16;5036404;28;20222;-75
2023/01/31 08:18:23;;;;;;;160.20;105.15;;;;;;;3.54;100.00;101300.41;5035129;28;20204;-69
2023/01/31 08:20:50;;;;;;;16.80;9.48;;;;;;;3.78;100.00;101298.59;5040341;28;20225;-76
2023/01/31 08:23:16;;;;;;;14.48;6.85;;;;;;;3.27;100.00;101297.81;5041696;28;20204;-76
2023/01/31 08:25:43;;;;;;;10.93;5.95;;;;;;;3.01;100.00;101308.44;5036582;28;20208;-77
2023/01/31 08:28:11;;;;;;;15.15;8.13;;;;;;;2.99;100.00;101311.13;5043446;28;20204;-76
2023/01/31 08:30:40;;;;;;;17.27;7.70;;;;;;;2.90;100.00;101319.13;5044713;28;20227;-77
2023/01/31 08:33:06;;;;;;;14.32;8.02;;;;;;;2.94;100.00;101326.22;5043214;28;20209;-75
2023/01/31 08:35:33;;;;;;;14.05;7.97;;;;;;;2.70;100.00;101312.00;5043695;28;20291;-76
2023/01/31 08:38:00;;;;;;;14.30;8.52;;;;;;;2.70;100.00;101330.59;5044408;28;20213;-75
2023/01/31 08:40:26;;;;;;;19.77;8.82;;;;;;;2.69;100.00;101318.22;5037130;28;20260;-76
2023/01/31 08:42:56;;;;;;;18.92;10.00;;;;;;;2.63;100.00;101325.28;5035687;28;20233;-76
2023/01/31 08:45:25;;;;;;;17.30;9.68;;;;;;;2.68;100.00;101321.75;5034401;28;20258;-75
2023/01/31 08:47:54;;;;;;;22.27;10.05;;;;;;;2.76;100.00;101324.44;5033208;28;20206;-75
2023/01/31 08:50:21;;;;;;;28.00;9.93;;;;;;;2.69;100.00;101333.25;5033716;28;20290;-76
2023/01/31 08:52:52;;;;;;;20.08;10.95;;;;;;;2.72;100.00;101343.91;5033910;28;20274;-76
2023/01/31 08:55:19;;;;;;;20.00;10.55;;;;;;;2.71;100.00;101339.47;5033945;28;20246;-75
2023/01/31 08:57:45;;;;;;;14.25;9.30;;;;;;;2.73;100.00;101327.06;5032677;28;20625;-76
2023/01/31 09:00:13;;;;;;;21.92;10.20;;;;;;;2.67;100.00;101321.75;5033845;28;20363;-75
2023/01/31 09:02:41;;;;;;;18.85;10.07;;;;;;;2.80;100.00;101331.50;5034831;28;20697;-76
2023/01/31 09:05:08;;;;;;;26.33;11.85;;;;;;;2.66;100.00;101325.28;5034242;28;20311;-75
2023/01/31 09:07:35;;;;;;;22.75;13.00;;;;;;;2.71;100.00;101305.81;5033165;28;20675;-75
2023/01/31 09:10:01;;;;;;;21.25;11.18;;;;;;;2.76;100.00;101307.56;5033471;28;20281;-75
2023/01/31 09:12:28;;;;;;;22.02;11.75;;;;;;;2.84;100.00;101311.13;5034394;28;20192;-75
2023/01/31 09:14:54;;;;;;;21.48;11.07;;;;;;;2.72;100.00;101307.56;5039106;28;20209;-76
2023/01/31 09:17:21;;;;;;;19.15;10.95;;;;;;;2.70;100.00;101306.66;5044795;28;20200;-76
2023/01/31 09:19:49;;;;;;;25.42;12.85;;;;;;;2.77;100.00;101312.00;5039221;28;20199;-75
2023/01/31 09:22:16;;;;;;;23.05;11.65;;;;;;;2.72;100.00;101320.88;5038457;28;20229;-75
2023/01/31 09:24:44;;;;;;;18.13;10.82;;;;;;;2.75;100.00;101332.41;5037790;28;20396;-75
2023/01/31 09:27:11;;;;;;;29.00;11.15;;;;;;;2.83;100.00;101330.66;5038313;28;20251;-75
2023/01/31 09:29:38;;;;;;;23.23;11.35;;;;;;;2.91;100.00;101321.75;5036739;28;20242;-76
2023/01/31 09:32:05;;;;;;;27.48;12.43;;;;;;;2.99;100.00;101334.22;5057977;22;20240;-74
2023/01/31 09:34:32;;;;;;;23.67;9.95;;;;;;;3.04;100.00;101343.06;5053757;28;20207;-73
2023/01/31 09:37:00;;;;;;;23.45;10.13;;;;;;;2.99;100.00;101327.09;5053779;28;20230;-75
2023/01/31 09:39:26;;;;;;;21.25;11.35;;;;;;;3.08;100.00;101327.09;5053084;28;20222;-73
2023/01/31 09:41:56;;;;;;;18.20;10.07;;;;;;;3.20;100.00;101326.22;5037014;28;20232;-74
2023/01/31 09:44:27;;;;;;;18.80;11.10;;;;;;;3.33;100.00;101327.09;5055639;28;20205;-75
2023/01/31 09:46:57;;;;;;;18.42;9.52;;;;;;;3.38;100.00;101325.31;5055926;28;20191;-75
2023/01/31 09:49:30;;;;;;;18.85;9.82;;;;;;;3.37;100.00;101315.56;5067104;28;20287;-74
2023/01/31 09:52:01;;;;;;;15.75;8.75;;;;;;;3.42;100.00;101308.44;5076577;28;20231;-74
2023/01/31 09:54:33;;;;;;;10.85;6.03;;;;;;;3.45;100.00;101302.22;5077107;28;20513;-74
2023/01/31 09:57:08;;;;;;;17.30;7.40;;;;;;;3.45;100.00;101297.78;5076739;28;20234;-73
2023/01/31 09:59:45;;;;;;;15.95;7.60;;;;;;;3.44;100.00;101271.16;5076039;28;20211;-75
2023/01/31 10:02:35;;;;;;;17.08;7.00;;;;;;;3.53;100.00;101274.69;5076636;28;20331;-75
2023/01/31 10:05:20;;;;;;;16.88;8.38;;;;;;;3.54;100.00;101281.78;5075609;28;20240;-74
2023/01/31 10:07:54;;;;;;;18.25;6.18;;;;;;;3.59;100.00;101289.75;5057867;28;20270;-74
2023/01/31 10:10:33;;;;;;;18.92;8.50;;;;;;;3.54;100.00;101303.09;5060529;28;20221;-75
2023/01/31 10:13:05;;;;;;;15.88;7.68;;;;;;;3.71;100.00;101304.84;5057483;28;20255;-74
2023/01/31 10:15:38;;;;;;;12.93;7.75;;;;;;;3.70;100.00;101290.59;5056617;28;20293;-73
2023/01/31 10:18:10;;;;;;;16.15;6.95;;;;;;;3.67;100.00;101293.28;5056598;28;20659;-75
2023/01/31 10:20:43;;;;;;;10.70;5.80;;;;;;;3.66;100.00;101303.94;5058246;28;20200;-73
2023/01/31 10:23:16;;;;;;;16.00;6.93;;;;;;;3.68;100.00;101289.72;5060791;28;20211;-73
2023/01/31 10:25:49;;;;;;;16.20;8.00;;;;;;;3.77;100.00;101286.16;5060729;28;20199;-73
2023/01/31 10:28:20;;;;;;;13.10;6.72;;;;;;;3.83;100.00;101266.59;5057342;28;20179;-74
2023/01/31 10:30:54;;;;;;;18.05;7.50;;;;;;;3.88;100.00;101270.13;5062122;28;20231;-73
2023/01/31 10:33:28;;;;;;;14.02;8.02;;;;;;;3.96;100.00;101263.88;5067630;28;20194;-72
2023/01/31 10:35:57;;;;;;;14.30;8.07;;;;;;;4.03;100.00;101267.41;5069194;28;20203;-74
2023/01/31 10:38:30;;;;;;;13.75;6.95;;;;;;;4.11;100.00;101281.56;5065174;28;20239;-75
2023/01/31 10:41:05;;;;;;;15.43;7.28;;;;;;;4.05;100.00;101259.38;5061530;28;20229;-74
2023/01/31 10:43:38;;;;;;;14.00;7.68;;;;;;;4.03;100.00;101255.88;5041903;28;20273;-74
2023/01/31 10:46:10;;;;;;;15.32;7.22;;;;;;;4.02;100.00;101248.75;5062773;28;20248;-75
2023/01/31 10:48:37;;;;;;;14.15;7.55;;;;;;;4.12;100.00;101232.69;5060986;28;20206;-74
2023/01/31 10:51:10;;;;;;;14.80;7.43;;;;;;;4.23;100.00;101221.97;5058427;28;20226;-74
2023/01/31 10:53:57;;;;;;;15.52;7.43;;;;;;;4.32;100.00;101221.91;5057522;28;20295;-74
2023/01/31 10:56:31;;;;;;;15.82;7.78;;;;;;;4.40;100.00;101213.84;5057856;28;20282;-74
2023/01/31 10:58:59;;;;;;;14.77;5.72;;;;;;;4.37;100.00;101220.09;5040070;28;20555;-74
2023/01/31 11:01:26;;;;;;;16.35;7.15;;;;;;;4.39;100.00;101210.31;5058402;28;20230;-75
2023/01/31 11:03:55;;;;;;;16.38;6.82;;;;;;;4.44;100.00;101198.72;5057550;28;20211;-74
2023/01/31 11:06:23;;;;;;;14.27;6.68;;;;;;;4.47;100.00;101220.03;5056607;28;20587;-74
2023/01/31 11:08:54;;;;;;;14.48;5.78;;;;;;;4.34;100.00;101209.47;5057087;28;20294;-73
2023/01/31 11:11:23;;;;;;;12.32;6.07;;;;;;;4.32;100.00;101205.00;5057875;28;20303;-74
2023/01/31 11:13:58;;;;;;;9.32;5.68;;;;;;;4.28;100.00;101185.50;5063597;28;20210;-73
2023/01/31 11:16:27;;;;;;;17.42;8.77;;;;;;;4.32;100.00;101189.91;5066418;28;20261;-72
2023/01/31 11:18:54;;;;;;;10.15;5.55;;;;;;;4.42;100.00;101182.72;5064984;28;20213;-73
2023/01/31 11:21:23;;;;;;;13.00;5.82;;;;;;;4.49;100.00;101194.22;5067744;28;20229;-74
2023/01/31 11:23:56;;;;;;;20.00;7.20;;;;;;;4.47;100.00;101182.69;5067585;28;20207;-73
2023/01/31 11:26:30;;;;;;;11.50;6.18;;;;;;;4.49;100.00;101178.22;5066104;28;20635;-74
2023/01/31 11:28:56;;;;;;;14.50;6.50;;;;;;;4.52;100.00;101163.09;5065666;28;20572;-73
2023/01/31 11:31:29;;;;;;;9.10;5.18;;;;;;;4.52;100.00;101155.09;5064399;28;20232;-72
2023/01/31 11:33:58;;;;;;;8.75;5.40;;;;;;;4.46;100.00;101146.25;5066243;28;20294;-72
2023/01/31 11:36:31;;;;;;;10.00;4.70;;;;;;;4.45;100.00;101158.69;5061621;28;20199;-72
2023/01/31 11:38:59;;;;;;;169.77;96.75;;;;;;;4.86;100.00;101167.22;5061364;28;20534;-70
2023/01/31 11:41:34;;;;;;;10.18;6.10;;;;;;;4.74;100.00;101161.09;5057046;28;20241;-73
2023/01/31 11:44:11;;;;;;;7.95;4.55;;;;;;;4.67;100.00;101156.72;5063442;28;20183;-74
2023/01/31 11:46:44;;;;;;;13.80;5.30;;;;;;;4.64;100.00;101138.09;5063525;28;20188;-72